Time;durP1;ratioP1;P1;durP2;ratioP2;P2;SDS_P1;SDS_P2;PMS_P1;PMS_P2;Temp;Humidity;BMP_temperature;BMP_pressure;BME280_temperature;BME280_humidity;BME280_pressure;Samples;Min_cycle;Max_cycle;Signal;HPM_P1;HPM_P2
2021/08/01 00:04:43;;;;;;;21.50;6.07;;;;;;;18.06;68.86;100897.81;10478751;28;20417;-82
2021/08/01 00:09:43;;;;;;;8.45;5.18;;;;;;;18.03;69.28;100892.84;10446055;28;20090;-82
2021/08/01 00:14:44;;;;;;;7.25;5.05;;;;;;;18.02;68.38;100895.81;10496658;28;20029;-82
2021/08/01 00:19:44;;;;;;;5.70;4.82;;;;;;;17.86;68.30;100870.03;10480156;28;20024;-82
2021/08/01 00:24:51;;;;;;;8.18;5.35;;;;;;;18.00;67.75;100893.31;10459959;28;20040;-82
2021/08/01 00:29:53;;;;;;;10.23;4.82;;;;;;;17.86;68.38;100861.81;10476743;28;20474;-82
2021/08/01 00:34:55;;;;;;;9.23;5.43;;;;;;;18.00;68.23;100882.38;10460363;28;20463;-82
2021/08/01 00:39:59;;;;;;;7.78;3.55;;;;;;;17.99;68.43;100890.81;10479058;28;20036;-82
2021/08/01 00:45:07;;;;;;;12.15;5.57;;;;;;;18.07;68.17;100883.03;10462399;28;20098;-82
2021/08/01 00:50:27;;;;;;;11.00;6.15;;;;;;;17.57;68.22;100807.06;10494428;28;20041;-82
2021/08/01 00:55:29;;;;;;;8.75;3.85;;;;;;;18.19;68.18;100874.75;10479996;28;20037;-82
2021/08/01 01:01:02;;;;;;;10.70;5.40;;;;;;;18.22;68.42;100877.00;10491723;28;20055;-81
2021/08/01 01:06:41;;;;;;;11.73;6.47;;;;;;;18.14;68.18;100877.38;10477263;28;20128;-82
2021/08/01 01:11:43;;;;;;;8.43;6.57;;;;;;;18.18;68.58;100867.59;10476884;28;20024;-82
2021/08/01 01:16:48;;;;;;;9.50;6.78;;;;;;;17.98;69.07;100843.41;10458788;28;20037;-82
2021/08/01 01:22:07;;;;;;;18.38;6.07;;;;;;;17.74;68.73;100779.72;10456830;28;20044;-81
2021/08/01 01:27:13;;;;;;;27.55;7.45;;;;;;;18.23;68.42;100864.94;10494620;28;20098;-82
2021/08/01 01:32:24;;;;;;;8.60;6.38;;;;;;;18.29;68.10;100855.72;10474788;28;20162;-82
2021/08/01 01:37:26;;;;;;;7.25;6.05;;;;;;;18.36;68.97;100870.06;10443149;28;20052;-82
2021/08/01 01:42:28;;;;;;;14.68;6.00;;;;;;;18.44;69.11;100848.78;10444658;28;20119;-81
2021/08/01 01:47:30;;;;;;;17.45;6.25;;;;;;;18.55;69.06;100854.19;10443301;28;20036;-82
2021/08/01 01:52:32;;;;;;;11.82;5.13;;;;;;;18.64;68.79;100857.34;10472445;28;20039;-82
2021/08/01 01:57:33;;;;;;;13.52;6.03;;;;;;;18.61;69.32;100851.53;10472998;28;20055;-81
2021/08/01 02:02:36;;;;;;;41.30;7.65;;;;;;;18.71;69.50;100844.28;10459478;28;20048;-81
2021/08/01 02:07:38;;;;;;;12.40;7.20;;;;;;;18.69;69.26;100843.69;10457895;28;20048;-82
2021/08/01 02:12:55;;;;;;;42.47;8.20;;;;;;;18.35;69.40;100802.63;10462524;28;20052;-82
2021/08/01 02:18:22;;;;;;;16.70;9.02;;;;;;;18.56;68.85;100844.88;10464623;28;20067;-81
2021/08/01 02:23:42;;;;;;;20.43;10.00;;;;;;;18.48;68.38;100848.06;10499189;28;20043;-82
2021/08/01 02:28:46;;;;;;;11.05;7.25;;;;;;;18.29;69.19;100820.06;10480467;28;20067;-81
2021/08/01 02:33:47;;;;;;;14.32;8.40;;;;;;;18.22;69.17;100822.16;10481503;28;20428;-81
2021/08/01 02:38:50;;;;;;;22.83;11.32;;;;;;;17.73;69.15;100767.06;10477796;28;20546;-82
2021/08/01 02:43:57;;;;;;;15.20;9.68;;;;;;;18.26;69.37;100842.50;10478000;28;20446;-83
2021/08/01 02:48:59;;;;;;;;;;;;;;;18.16;68.38;100847.84;10475004;28;20070;-82
2021/08/01 02:54:02;;;;;;;27.75;10.27;;;;;;;18.12;68.81;100844.75;10493957;28;19912;-81
2021/08/01 02:59:04;;;;;;;30.98;9.85;;;;;;;18.04;69.55;100839.69;10461105;28;20108;-82
2021/08/01 03:04:14;;;;;;;38.80;12.40;;;;;;;17.90;68.53;100843.84;10460046;28;20033;-81
2021/08/01 03:09:18;;;;;;;26.92;11.93;;;;;;;17.90;69.58;100835.63;10494727;28;20468;-82
2021/08/01 03:14:24;;;;;;;38.90;12.13;;;;;;;17.74;70.40;100826.28;10460996;28;20032;-81
2021/08/01 03:20:11;;;;;;;16.25;10.93;;;;;;;17.34;69.78;100758.72;10476599;28;20139;-82
2021/08/01 03:25:18;;;;;;;30.20;14.23;;;;;;;17.78;70.29;100821.97;10495760;28;20037;-82
2021/08/01 03:30:55;;;;;;;35.13;14.75;;;;;;;17.77;69.09;100834.03;10465703;28;20041;-81
2021/08/01 03:36:22;;;;;;;35.90;12.05;;;;;;;17.32;69.13;100762.78;10477906;28;20357;-81
2021/08/01 03:41:29;;;;;;;22.60;13.45;;;;;;;17.58;69.93;100841.59;10478527;28;20040;-82
2021/08/01 03:46:29;;;;;;;;;;;;;;;17.58;69.24;100836.13;10462440;28;20044;-82
2021/08/01 03:51:45;;;;;;;26.63;13.63;;;;;;;17.66;69.51;100843.91;10496338;28;19923;-82
2021/08/01 03:56:59;;;;;;;30.70;14.77;;;;;;;17.34;69.60;100780.63;10461668;28;20429;-81
2021/08/01 04:02:06;;;;;;;23.90;14.23;;;;;;;17.78;69.66;100841.16;10477637;28;20036;-82
2021/08/01 04:07:08;;;;;;;27.23;12.82;;;;;;;17.84;70.43;100845.66;10473895;28;20522;-82
2021/08/01 04:12:09;;;;;;;14.85;12.88;;;;;;;17.82;70.18;100834.09;10473577;28;20047;-82
2021/08/01 04:17:10;;;;;;;32.60;15.20;;;;;;;17.84;70.46;100844.81;10439479;28;20242;-82
2021/08/01 04:22:16;;;;;;;36.92;15.93;;;;;;;17.77;70.41;100823.06;10491252;28;20060;-82
2021/08/01 04:27:19;;;;;;;26.02;16.10;;;;;;;17.93;70.72;100847.97;10492750;28;20542;-82
2021/08/01 04:32:27;;;;;;;37.20;18.35;;;;;;;18.10;70.83;100859.78;10457951;28;20040;-81
2021/08/01 04:37:29;;;;;;;33.15;16.42;;;;;;;18.13;70.43;100851.06;10475966;28;20056;-81
2021/08/01 04:42:31;;;;;;;27.40;17.13;;;;;;;18.13;70.05;100857.38;10474007;28;20419;-81
2021/08/01 04:47:33;;;;;;;35.17;15.20;;;;;;;18.23;70.52;100851.22;10457294;28;20055;-81
2021/08/01 04:52:36;;;;;;;23.88;14.18;;;;;;;18.18;71.42;100850.31;10456271;28;20029;-81
2021/08/01 04:57:38;;;;;;;25.90;13.68;;;;;;;18.30;70.96;100846.41;10474437;28;20048;-81
2021/08/01 05:02:40;;;;;;;28.02;16.13;;;;;;;18.39;70.86;100841.34;10457519;28;20036;-81
2021/08/01 05:07:43;;;;;;;18.35;15.23;;;;;;;18.33;71.50;100842.34;10457429;28;20033;-81
2021/08/01 05:12:45;;;;;;;23.83;13.85;;;;;;;18.27;71.39;100849.63;10473312;28;20033;-81
2021/08/01 05:17:53;;;;;;;21.13;13.85;;;;;;;18.48;70.39;100841.75;10474227;28;20046;-81
2021/08/01 05:22:58;;;;;;;40.65;15.40;;;;;;;18.47;70.32;100815.38;10493038;28;20036;-81
2021/08/01 05:28:06;;;;;;;23.60;14.48;;;;;;;18.90;70.45;100849.50;10459730;28;20040;-81
2021/08/01 05:33:08;;;;;;;23.40;14.02;;;;;;;18.80;70.28;100809.03;10477694;28;20391;-81
2021/08/01 05:38:10;;;;;;;22.13;15.10;;;;;;;19.03;70.59;100829.91;10452544;28;20139;-82
2021/08/01 05:43:11;;;;;;;29.67;15.30;;;;;;;18.56;70.14;100751.63;10451682;28;20040;-81
2021/08/01 05:48:13;;;;;;;27.00;17.60;;;;;;;19.13;71.07;100835.50;10458720;28;20075;-81
2021/08/01 05:53:32;;;;;;;25.85;17.83;;;;;;;19.14;71.45;100815.19;10460309;28;20053;-81
2021/08/01 05:58:37;;;;;;;22.80;16.90;;;;;;;19.21;71.85;100847.97;10458903;28;20132;-81
2021/08/01 06:03:47;;;;;;;40.20;17.67;;;;;;;19.46;71.32;100839.19;10461822;28;20033;-81
2021/08/01 06:08:56;;;;;;;24.63;19.00;;;;;;;19.82;70.92;100847.84;10460659;28;20475;-81
2021/08/01 06:13:57;;;;;;;21.38;16.58;;;;;;;20.14;70.15;100845.91;10443835;28;20052;-82
2021/08/01 06:19:19;;;;;;;29.30;15.57;;;;;;;20.05;71.57;100846.66;10456508;28;20041;-81
2021/08/01 06:24:31;;;;;;;15.50;13.02;;;;;;;20.55;69.68;100846.25;10459614;28;20092;-82
2021/08/01 06:29:32;;;;;;;17.25;13.35;;;;;;;21.15;68.47;100835.78;10457742;28;20086;-81
2021/08/01 06:34:32;;;;;;;11.95;7.90;;;;;;;20.82;67.02;100843.38;10390159;28;20502;-80
2021/08/01 06:39:33;;;;;;;9.80;7.32;;;;;;;20.31;68.64;100850.44;10455240;28;20481;-80
2021/08/01 06:44:33;;;;;;;6.63;5.75;;;;;;;20.14;68.22;100862.41;10453535;28;20578;-79
2021/08/01 06:49:34;;;;;;;10.95;6.85;;;;;;;19.06;70.96;100851.34;10460251;28;20445;-79
2021/08/01 06:54:34;;;;;;;8.43;7.63;;;;;;;18.83;72.38;100868.06;10458061;28;20471;-80
2021/08/01 06:59:35;;;;;;;9.52;7.53;;;;;;;18.89;71.65;100864.28;10460599;28;20110;-80
2021/08/01 07:04:35;;;;;;;11.25;9.25;;;;;;;18.96;71.44;100868.53;10461467;28;20033;-82
2021/08/01 07:09:40;;;;;;;15.98;9.20;;;;;;;18.93;71.63;100858.03;10444117;28;20036;-79
2021/08/01 07:14:40;;;;;;;12.73;8.75;;;;;;;18.93;71.24;100849.00;10461931;28;20052;-79
2021/08/01 07:19:41;;;;;;;13.82;10.10;;;;;;;19.23;71.11;100884.22;10459181;28;20037;-80
2021/08/01 07:24:41;;;;;;;10.82;8.75;;;;;;;18.92;70.96;100850.06;10457274;28;20068;-80
2021/08/01 07:29:42;;;;;;;13.32;8.23;;;;;;;19.29;71.22;100880.47;10460016;28;20045;-79
2021/08/01 07:34:42;;;;;;;16.83;9.38;;;;;;;19.62;70.61;100886.88;10464270;28;20066;-80
2021/08/01 07:39:43;;;;;;;13.85;8.77;;;;;;;19.32;70.20;100825.03;10500435;28;20055;-79
2021/08/01 07:44:47;;;;;;;11.88;7.47;;;;;;;19.68;70.51;100892.19;10466531;28;20028;-80
2021/08/01 07:49:49;;;;;;;8.93;6.70;;;;;;;18.94;70.76;100821.28;10500353;28;20405;-80
2021/08/01 07:54:50;;;;;;;8.45;6.70;;;;;;;19.34;71.38;100891.50;10477724;28;20458;-80
2021/08/01 07:59:50;;;;;;;7.07;6.47;;;;;;;19.18;71.07;100849.31;10494728;28;20107;-81
2021/08/01 08:04:51;;;;;;;8.82;5.72;;;;;;;19.70;70.50;100890.03;10475349;28;20040;-81
2021/08/01 08:09:51;;;;;;;6.55;5.95;;;;;;;20.06;69.77;100895.88;10491712;28;20040;-82
2021/08/01 08:14:51;;;;;;;10.18;4.60;;;;;;;20.49;68.99;100902.28;10472633;28;20115;-80
2021/08/01 08:19:52;;;;;;;4.55;3.60;;;;;;;20.89;67.92;100907.25;10470786;28;20470;-81
2021/08/01 08:24:53;;;;;;;3.17;2.88;;;;;;;21.21;67.51;100909.06;10491271;28;20143;-80
2021/08/01 08:29:53;;;;;;;3.33;3.03;;;;;;;21.42;67.01;100910.03;10472703;28;20433;-82
2021/08/01 08:34:53;;;;;;;4.57;3.80;;;;;;;21.97;65.72;100921.47;10472939;28;20059;-82
2021/08/01 08:39:54;;;;;;;3.30;3.10;;;;;;;22.43;64.78;100916.88;10488808;28;20067;-82
2021/08/01 08:44:54;;;;;;;7.80;3.50;;;;;;;22.51;65.09;100871.31;10487408;28;20044;-82
2021/08/01 08:49:55;;;;;;;3.50;3.28;;;;;;;23.34;63.54;100928.84;10469229;28;20028;-80
2021/08/01 08:54:56;;;;;;;4.07;3.75;;;;;;;24.37;62.55;100923.56;10487718;28;20447;-82
2021/08/01 09:00:02;;;;;;;9.38;3.58;;;;;;;24.49;62.46;100917.69;10472396;28;20025;-81
2021/08/01 09:05:04;;;;;;;4.50;3.95;;;;;;;24.77;61.28;100933.47;10475040;28;20052;-82
2021/08/01 09:10:05;;;;;;;5.20;4.50;;;;;;;24.19;61.29;100902.97;10472690;28;20044;-82
2021/08/01 09:15:18;;;;;;;10.93;5.45;;;;;;;25.22;62.20;100887.00;10489568;28;20048;-83
2021/08/01 09:20:30;;;;;;;3.95;3.63;;;;;;;25.77;59.53;100932.88;10475890;28;20375;-82
2021/08/01 09:25:35;;;;;;;8.48;4.40;;;;;;;24.84;59.34;100930.38;10494998;28;20054;-82
2021/08/01 09:30:43;;;;;;;3.10;2.90;;;;;;;25.13;59.82;100919.28;10476243;28;20095;-81
2021/08/01 09:35:44;;;;;;;4.13;3.83;;;;;;;26.12;56.69;100942.66;10444487;28;20061;-83
2021/08/01 09:40:48;;;;;;;3.38;3.17;;;;;;;26.86;53.96;100934.50;10459927;28;20113;-82
2021/08/01 09:45:52;;;;;;;7.55;4.70;;;;;;;25.84;54.91;100875.09;10461908;28;20046;-84
2021/08/01 09:51:11;;;;;;;3.55;3.17;;;;;;;26.06;57.83;100941.91;10494634;28;20040;-82
2021/08/01 09:56:19;;;;;;;4.90;3.38;;;;;;;26.03;54.32;100945.28;10476129;28;20098;-84
2021/08/01 10:01:20;;;;;;;3.03;2.83;;;;;;;25.68;54.42;100955.72;10494617;28;20035;-82
2021/08/01 10:06:22;;;;;;;11.95;3.72;;;;;;;25.93;56.96;100948.22;10458932;28;20040;-82
2021/08/01 10:11:24;;;;;;;6.40;4.40;;;;;;;26.00;55.09;100956.97;10474924;28;20032;-82
2021/08/01 10:16:24;;;;;;;2.63;2.42;;;;;;;26.05;53.48;100945.00;10474633;28;20059;-82
2021/08/01 10:21:25;;;;;;;7.55;3.38;;;;;;;26.17;53.04;100948.16;10473636;28;20033;-82
2021/08/01 10:26:31;;;;;;;2.83;2.63;;;;;;;26.29;52.87;100911.56;10474661;28;20039;-82
2021/08/01 10:31:34;;;;;;;5.15;2.63;;;;;;;26.11;54.02;100952.13;10477399;28;20070;-83
2021/08/01 10:36:34;;;;;;;2.30;2.20;;;;;;;26.59;50.77;100947.22;10501123;28;20085;-82
2021/08/01 10:41:35;;;;;;;3.90;2.60;;;;;;;27.47;50.17;100950.03;10482993;28;20501;-82
2021/08/01 10:46:35;;;;;;;3.55;3.22;;;;;;;27.30;48.77;100947.03;10464906;28;20512;-82
2021/08/01 10:51:36;;;;;;;3.60;3.22;;;;;;;27.74;49.78;100954.72;10463728;28;20450;-81
2021/08/01 10:56:36;;;;;;;2.28;2.10;;;;;;;28.44;50.15;100958.16;10463988;28;20471;-82
2021/08/01 11:02:16;;;;;;;6.35;3.25;;;;;;;29.01;50.57;100943.63;10498112;28;20058;-83
2021/08/01 11:07:25;;;;;;;3.78;3.30;;;;;;;29.02;44.94;100920.16;10475873;28;20123;-83
2021/08/01 11:12:30;;;;;;;3.38;2.85;;;;;;;28.87;46.80;100964.00;10481054;28;20032;-82
2021/08/01 11:17:51;;;;;;;2.75;2.55;;;;;;;27.92;50.17;100885.31;10498383;28;20083;-81
2021/08/01 11:22:53;;;;;;;3.20;2.95;;;;;;;28.54;45.96;100918.09;10480647;28;20048;-82
2021/08/01 11:28:12;;;;;;;2.15;2.05;;;;;;;29.10;47.34;100952.81;10480826;28;20067;-82
2021/08/01 11:33:38;;;;;;;2.20;1.98;;;;;;;29.55;48.47;100961.06;10479546;28;20039;-82
2021/08/01 11:38:57;;;;;;;8.02;2.70;;;;;;;29.29;44.79;100925.53;10498444;28;20047;-82
2021/08/01 11:43:59;;;;;;;11.27;3.28;;;;;;;28.75;45.50;100905.25;10460902;28;20040;-82
2021/08/01 11:49:00;;;;;;;2.60;2.40;;;;;;;29.62;45.74;100925.16;10461850;28;20562;-82
2021/08/01 11:54:01;;;;;;;3.33;2.97;;;;;;;30.62;43.35;100968.03;10461306;28;20144;-82
2021/08/01 11:59:01;;;;;;;2.67;2.47;;;;;;;30.00;45.89;100958.84;10473235;28;20119;-82
2021/08/01 12:04:09;;;;;;;3.65;1.98;;;;;;;28.73;46.81;100927.88;10456404;28;20435;-83
2021/08/01 12:09:16;;;;;;;2.60;2.40;;;;;;;28.63;46.53;100994.19;10471385;28;20032;-84
2021/08/01 12:14:17;;;;;;;15.05;2.75;;;;;;;28.98;47.74;100982.13;10473832;28;20028;-83
2021/08/01 12:19:20;;;;;;;4.40;2.72;;;;;;;28.71;45.01;100999.81;10458096;28;20474;-85
2021/08/01 12:24:32;;;;;;;2.80;2.70;;;;;;;29.39;46.76;100983.81;10473534;28;20139;-84
2021/08/01 12:29:39;;;;;;;4.57;4.18;;;;;;;30.58;44.04;100960.31;10472310;28;20452;-82
2021/08/01 12:34:39;;;;;;;;;;;;;;;31.14;46.06;100979.94;10457784;28;20095;-85
2021/08/01 12:39:44;;;;;;;3.83;3.13;;;;;;;31.25;44.13;100997.19;10458279;28;20053;-83
2021/08/01 12:44:52;;;;;;;3.53;3.33;;;;;;;31.72;44.52;100977.56;10491798;28;20309;-85
2021/08/01 12:49:54;;;;;;;6.13;3.42;;;;;;;31.05;41.46;100995.94;10492145;28;20048;-84
2021/08/01 12:54:54;;;;;;;4.88;2.78;;;;;;;29.22;44.19;101003.25;10493525;28;20062;-84
2021/08/01 13:00:11;;;;;;;2.25;2.03;;;;;;;29.16;48.56;101005.38;10474398;28;20032;-83
2021/08/01 13:05:21;;;;;;;3.42;2.22;;;;;;;29.91;46.40;101001.88;10475561;28;20383;-83
2021/08/01 13:10:22;;;;;;;2.70;2.10;;;;;;;29.17;43.47;100981.09;10494085;28;20094;-83
2021/08/01 13:15:24;;;;;;;1.85;1.75;;;;;;;28.81;43.10;100995.13;10491813;28;20082;-83
2021/08/01 13:20:36;;;;;;;2.83;2.22;;;;;;;28.68;45.63;101019.13;10455287;28;20052;-83
2021/08/01 13:25:36;;;;;;;3.30;2.40;;;;;;;28.38;43.52;100976.13;10441755;28;20353;-82
2021/08/01 13:30:37;;;;;;;1.67;1.58;;;;;;;28.67;45.10;101015.53;10474471;28;20048;-83
2021/08/01 13:35:37;;;;;;;1.63;1.52;;;;;;;28.11;44.86;101033.56;10457318;28;20063;-82
2021/08/01 13:40:39;;;;;;;1.92;1.75;;;;;;;28.06;45.30;100986.31;10471088;28;20371;-82
2021/08/01 13:45:39;;;;;;;2.58;1.75;;;;;;;28.09;48.51;101021.06;10473483;28;20037;-83
2021/08/01 13:50:40;;;;;;;1.90;1.60;;;;;;;27.61;47.40;101046.56;10471465;28;20406;-82
2021/08/01 13:55:41;;;;;;;6.18;2.10;;;;;;;27.77;45.32;101039.56;10471026;28;20127;-82
2021/08/01 14:00:41;;;;;;;1.63;1.58;;;;;;;28.22;45.68;101046.09;10469581;28;20105;-82
2021/08/01 14:05:42;;;;;;;1.70;1.58;;;;;;;28.88;44.32;101063.22;10489126;28;20105;-82
2021/08/01 14:10:42;;;;;;;2.47;2.15;;;;;;;28.50;43.32;101051.63;10477014;28;20106;-83
2021/08/01 14:15:43;;;;;;;1.70;1.60;;;;;;;28.30;46.43;101055.66;10476573;28;20044;-83
2021/08/01 14:20:43;;;;;;;2.97;1.98;;;;;;;28.52;45.42;101047.34;10494400;28;20111;-83
2021/08/01 14:25:44;;;;;;;1.70;1.60;;;;;;;28.76;43.69;101054.63;10459312;28;20032;-83
2021/08/01 14:30:44;;;;;;;3.70;1.73;;;;;;;28.85;43.06;101051.91;10475989;28;20470;-83
2021/08/01 14:35:47;;;;;;;2.47;1.73;;;;;;;28.55;43.52;101059.03;10476763;28;20066;-83
2021/08/01 14:40:48;;;;;;;1.52;1.48;;;;;;;29.45;42.67;100987.25;10476261;28;20450;-83
2021/08/01 14:45:48;;;;;;;1.00;1.00;;;;;;;30.43;41.00;101052.22;10458976;28;20137;-84
2021/08/01 14:50:52;;;;;;;1.65;1.55;;;;;;;29.47;40.72;101048.31;10493291;28;20135;-83
2021/08/01 14:55:58;;;;;;;1.48;1.23;;;;;;;30.00;42.81;101066.94;10493396;28;20060;-84
2021/08/01 15:01:13;;;;;;;1.55;1.45;;;;;;;29.37;43.41;101066.16;10442714;28;20033;-84
2021/08/01 15:06:41;;;;;;;1.58;1.05;;;;;;;28.68;44.24;101067.31;10459015;28;20039;-83
2021/08/01 15:12:07;;;;;;;1.77;1.52;;;;;;;27.99;46.28;101061.91;10468598;28;20032;-85
2021/08/01 15:17:13;;;;;;;1.92;1.80;;;;;;;27.27;46.76;101095.00;10468085;28;20139;-84
2021/08/01 15:22:19;;;;;;;4.85;1.45;;;;;;;26.33;47.12;101034.81;10485919;28;20375;-85
2021/08/01 15:27:20;;;;;;;4.10;1.90;;;;;;;26.02;45.90;101074.06;10466356;28;20139;-85
2021/08/01 15:32:20;;;;;;;2.35;1.80;;;;;;;25.33;47.75;101047.66;10496687;28;20029;-85
2021/08/01 15:37:21;;;;;;;1.63;1.40;;;;;;;25.12;48.55;101074.72;10436628;28;20067;-86
2021/08/01 15:42:22;;;;;;;2.58;2.38;;;;;;;25.36;47.64;101106.09;10453963;28;20385;-84
2021/08/01 15:47:23;;;;;;;11.10;2.53;;;;;;;24.83;48.04;101064.44;10436652;28;20127;-83
2021/08/01 15:53:02;;;;;;;4.35;1.40;;;;;;;24.58;51.00;101126.38;10452407;28;20032;-84
2021/08/01 15:58:26;;;;;;;3.25;2.17;;;;;;;24.43;51.05;101123.69;10451651;28;20523;-85
2021/08/01 16:04:02;;;;;;;2.97;1.30;;;;;;;24.24;50.37;101138.13;10453757;28;20032;-85
2021/08/01 16:09:04;;;;;;;4.97;1.33;;;;;;;23.55;50.38;101139.69;10445833;28;20037;-84
2021/08/01 16:14:06;;;;;;;3.20;2.15;;;;;;;22.88;50.66;101075.31;10455594;28;20033;-84
2021/08/01 16:19:13;;;;;;;2.83;1.27;;;;;;;23.25;52.15;101129.47;10454149;28;20032;-83
2021/08/01 16:24:13;;;;;;;6.57;1.95;;;;;;;22.98;50.67;101129.75;10454969;28;20041;-84
2021/08/01 16:29:14;;;;;;;1.58;1.45;;;;;;;23.30;51.04;101126.72;10451874;28;20041;-83
2021/08/01 16:34:16;;;;;;;6.90;1.50;;;;;;;23.04;52.94;101123.13;10419490;28;20025;-83
2021/08/01 16:39:16;;;;;;;1.50;1.40;;;;;;;22.82;50.81;101097.69;10436978;28;20083;-84
2021/08/01 16:44:31;;;;;;;2.00;1.48;;;;;;;22.73;51.99;101078.06;10419517;28;20340;-83
2021/08/01 16:50:04;;;;;;;3.25;2.38;;;;;;;22.52;51.93;101138.72;10434888;28;20125;-83
2021/08/01 16:55:15;;;;;;;1.88;1.35;;;;;;;22.56;51.77;101140.94;10434702;28;20116;-84
2021/08/01 17:00:16;;;;;;;5.35;2.28;;;;;;;22.67;51.03;101148.16;10451869;28;20033;-83
2021/08/01 17:05:28;;;;;;;8.05;1.75;;;;;;;22.78;51.66;101149.84;10402219;28;20446;-84
2021/08/01 17:10:28;;;;;;;4.57;2.35;;;;;;;22.49;51.50;101150.34;10451750;28;20071;-84
2021/08/01 17:15:30;;;;;;;2.33;2.13;;;;;;;22.17;52.65;101142.19;10433629;28;20438;-83
2021/08/01 17:20:30;;;;;;;5.57;1.90;;;;;;;22.22;51.78;101155.19;10417783;28;20033;-84
2021/08/01 17:25:31;;;;;;;3.08;1.30;;;;;;;22.24;52.21;101169.56;10417795;28;20059;-84
2021/08/01 17:30:31;;;;;;;2.60;2.40;;;;;;;22.06;51.90;101166.13;10431855;28;20048;-83
2021/08/01 17:35:32;;;;;;;1.52;1.42;;;;;;;21.96;52.00;101179.84;10424239;28;20162;-83
2021/08/01 17:40:33;;;;;;;3.88;2.08;;;;;;;22.06;52.34;101176.31;10443538;28;20040;-83
2021/08/01 17:45:33;;;;;;;9.15;2.80;;;;;;;21.62;53.58;101123.41;10464411;28;20066;-82
2021/08/01 17:50:35;;;;;;;2.33;2.15;;;;;;;22.08;52.43;101174.13;10465446;28;20119;-83
2021/08/01 17:55:38;;;;;;;2.97;1.38;;;;;;;21.70;52.54;101169.78;10500276;28;20128;-83
2021/08/01 18:00:39;;;;;;;1.55;1.45;;;;;;;21.66;52.37;101180.47;10484003;28;20032;-83
2021/08/01 18:05:39;;;;;;;1.65;1.10;;;;;;;21.38;52.87;101187.16;10483911;28;20040;-83
2021/08/01 18:10:48;;;;;;;5.85;1.58;;;;;;;20.87;53.93;101189.41;10465853;28;20028;-84
2021/08/01 18:15:56;;;;;;;3.35;1.90;;;;;;;20.64;54.35;101191.38;10482732;28;20037;-84
2021/08/01 18:21:05;;;;;;;4.32;1.90;;;;;;;20.56;54.22;101200.06;10482194;28;20448;-83
2021/08/01 18:26:05;;;;;;;1.73;1.63;;;;;;;20.34;54.07;101200.03;10481399;28;20044;-83
2021/08/01 18:31:06;;;;;;;4.93;1.75;;;;;;;20.17;54.30;101202.84;10466161;28;20088;-83
2021/08/01 18:36:07;;;;;;;2.25;2.05;;;;;;;20.05;54.75;101201.28;10465231;28;20468;-83
2021/08/01 18:41:12;;;;;;;4.85;1.98;;;;;;;19.98;55.10;101215.22;10477925;28;20029;-83
2021/08/01 18:46:13;;;;;;;1.85;1.75;;;;;;;19.84;55.43;101206.47;10461124;28;20036;-84
2021/08/01 18:51:13;;;;;;;9.45;2.38;;;;;;;19.84;55.59;101224.88;10459326;28;20071;-83
2021/08/01 18:56:15;;;;;;;1.40;1.30;;;;;;;19.78;55.72;101236.88;10457557;28;20052;-84
2021/08/01 19:01:16;;;;;;;4.55;2.95;;;;;;;19.60;56.32;101251.69;10460175;28;20344;-83
2021/08/01 19:06:16;;;;;;;3.15;1.77;;;;;;;19.54;57.10;101241.69;10476988;28;20104;-84
2021/08/01 19:11:18;;;;;;;5.10;2.47;;;;;;;19.38;56.78;101235.91;10459109;28;20045;-83
2021/08/01 19:16:22;;;;;;;2.15;1.95;;;;;;;19.31;57.04;101251.72;10492972;28;20120;-83
2021/08/01 19:21:33;;;;;;;4.22;2.80;;;;;;;19.07;56.57;101253.75;10475654;28;20033;-82
2021/08/01 19:26:41;;;;;;;1.67;1.58;;;;;;;18.83;57.10;101257.69;10495361;28;20041;-83
2021/08/01 19:31:44;;;;;;;5.82;2.40;;;;;;;18.61;57.35;101260.22;10476546;28;20107;-82
2021/08/01 19:36:45;;;;;;;5.70;1.50;;;;;;;18.54;57.39;101274.06;10493164;28;20127;-83
2021/08/01 19:41:47;;;;;;;4.65;2.20;;;;;;;18.54;57.53;101254.88;10475427;28;20031;-83
2021/08/01 19:46:50;;;;;;;1.85;1.70;;;;;;;18.59;57.71;101261.25;10474039;28;20056;-83
2021/08/01 19:51:52;;;;;;;4.07;2.20;;;;;;;18.73;57.74;101270.09;10493098;28;20028;-83
2021/08/01 19:56:57;;;;;;;6.00;2.30;;;;;;;18.83;57.43;101269.47;10493682;28;20044;-82
2021/08/01 20:01:58;;;;;;;5.43;3.40;;;;;;;18.87;57.34;101269.81;10477602;28;20040;-83
2021/08/01 20:07:00;;;;;;;4.15;3.10;;;;;;;18.62;57.33;101246.25;10474499;28;20036;-83
2021/08/01 20:12:01;;;;;;;6.15;2.72;;;;;;;18.80;57.28;101283.69;10457365;28;20044;-83
2021/08/01 20:17:03;;;;;;;6.40;2.58;;;;;;;18.77;57.52;101268.53;10455481;28;20053;-83
2021/08/01 20:22:04;;;;;;;4.70;2.35;;;;;;;18.80;57.28;101273.53;10440765;28;20104;-83
2021/08/01 20:27:05;;;;;;;1.88;1.77;;;;;;;18.91;57.34;101281.97;10456812;28;20067;-85
2021/08/01 20:32:06;;;;;;;3.40;2.38;;;;;;;18.95;56.84;101288.63;10476097;28;20059;-82
2021/08/01 20:37:06;;;;;;;7.30;2.75;;;;;;;18.89;57.31;101298.69;10460213;28;20121;-82
2021/08/01 20:42:07;;;;;;;2.00;1.80;;;;;;;18.96;57.02;101306.78;10460209;28;20032;-82
2021/08/01 20:47:10;;;;;;;6.78;1.75;;;;;;;18.91;56.76;101310.25;10474889;28;20416;-82
2021/08/01 20:52:10;;;;;;;5.10;2.20;;;;;;;18.83;56.75;101305.16;10493381;28;20036;-82
2021/08/01 20:57:11;;;;;;;8.40;1.83;;;;;;;18.69;57.35;101307.28;10475036;28;20032;-82
2021/08/01 21:02:11;;;;;;;2.42;1.58;;;;;;;18.41;56.60;101250.47;10442209;28;20135;-83
2021/08/01 21:07:12;;;;;;;3.75;1.95;;;;;;;18.72;56.11;101303.22;10475976;28;20132;-83
2021/08/01 21:12:13;;;;;;;2.25;1.40;;;;;;;18.67;56.46;101298.47;10459475;28;20037;-83
2021/08/01 21:17:14;;;;;;;4.15;2.45;;;;;;;18.46;56.76;101258.78;10458902;28;20112;-82
2021/08/01 21:22:15;;;;;;;2.88;1.65;;;;;;;18.52;56.61;101307.19;10494568;28;20098;-82
2021/08/01 21:27:16;;;;;;;3.53;1.75;;;;;;;18.32;56.44;101287.56;10461379;28;20530;-83
2021/08/01 21:32:17;;;;;;;2.08;1.35;;;;;;;18.39;57.02;101301.13;10476413;28;20036;-83
2021/08/01 21:37:19;;;;;;;13.15;2.53;;;;;;;18.19;56.85;101285.91;10476797;28;20057;-83
2021/08/01 21:42:20;;;;;;;4.22;2.15;;;;;;;18.12;56.93;101307.09;10460077;28;20060;-82
2021/08/01 21:47:21;;;;;;;4.90;2.38;;;;;;;17.98;57.17;101311.13;10475709;28;20117;-85
2021/08/01 21:52:22;;;;;;;6.13;4.15;;;;;;;17.84;57.62;101307.78;10459598;28;20198;-83
2021/08/01 21:57:24;;;;;;;11.75;4.78;;;;;;;17.89;57.82;101307.91;10459328;28;20043;-83
2021/08/01 22:02:25;;;;;;;4.25;2.00;;;;;;;17.80;57.86;101293.72;10475934;28;20047;-83
2021/08/01 22:07:27;;;;;;;3.42;2.45;;;;;;;17.46;57.67;101239.69;10443935;28;20035;-83
2021/08/01 22:12:28;;;;;;;1.63;1.48;;;;;;;17.87;57.86;101310.91;10492477;28;20480;-83
2021/08/01 22:17:29;;;;;;;2.78;2.33;;;;;;;17.54;57.85;101273.03;10441105;28;20041;-83
2021/08/01 22:22:32;;;;;;;3.40;2.10;;;;;;;17.86;57.83;101322.91;10458742;28;20218;-83
2021/08/01 22:27:33;;;;;;;2.67;1.80;;;;;;;17.95;57.91;101311.59;10477461;28;20172;-83
2021/08/01 22:32:35;;;;;;;5.10;2.42;;;;;;;18.10;57.85;101332.00;10466236;28;20105;-83
2021/08/01 22:37:36;;;;;;;9.50;2.75;;;;;;;18.12;57.71;101323.53;10449449;28;20060;-83
2021/08/01 22:42:37;;;;;;;2.20;1.73;;;;;;;18.24;58.24;101337.25;10463754;28;20036;-83
2021/08/01 22:47:38;;;;;;;11.63;2.20;;;;;;;18.29;57.96;101334.63;10460249;28;20036;-83
2021/08/01 22:52:43;;;;;;;2.42;1.95;;;;;;;17.89;58.27;101292.28;10495215;28;20028;-83
2021/08/01 22:57:44;;;;;;;13.82;2.15;;;;;;;18.26;58.24;101349.66;10458424;28;20075;-83
2021/08/01 23:02:47;;;;;;;1.60;1.55;;;;;;;18.31;58.10;101343.44;10462131;28;20398;-83
2021/08/01 23:07:57;;;;;;;1.77;1.60;;;;;;;18.31;58.26;101359.91;10462696;28;20043;-83
2021/08/01 23:13:08;;;;;;;2.00;1.70;;;;;;;18.05;58.19;101292.66;10497420;28;20075;-83
2021/08/01 23:18:36;;;;;;;3.38;1.73;;;;;;;18.29;58.31;101335.47;10476714;28;20428;-83